Time;durP1;ratioP1;P1;durP2;ratioP2;P2;SDS_P1;SDS_P2;PMS_P1;PMS_P2;Temp;Humidity;BMP_temperature;BMP_pressure;BME280_temperature;BME280_humidity;BME280_pressure;Samples;Min_cycle;Max_cycle;Signal;HPM_P1;HPM_P2
2022/12/04 00:02:01;;;;;;;49.53;27.87;;;3.40;99.90;;;;;;5066393;28;20195;-33
2022/12/04 00:04:33;;;;;;;52.73;28.53;;;3.40;99.90;;;;;;5066624;28;20250;-33
2022/12/04 00:07:05;;;;;;;50.80;26.87;;;3.30;99.90;;;;;;5066183;28;20208;-33
2022/12/04 00:09:34;;;;;;;52.63;28.80;;;3.30;99.90;;;;;;5066098;28;20205;-33
2022/12/04 00:12:06;;;;;;;48.80;27.83;;;3.30;99.90;;;;;;5066087;28;20747;-33
2022/12/04 00:14:34;;;;;;;48.47;26.50;;;3.30;99.90;;;;;;5064635;28;20752;-33
2022/12/04 00:17:24;;;;;;;47.50;26.70;;;3.20;99.90;;;;;;5066132;28;20195;-33
2022/12/04 00:19:51;;;;;;;50.43;28.53;;;3.20;99.90;;;;;;5065991;28;20296;-33
2022/12/04 00:22:21;;;;;;;44.53;26.33;;;3.20;99.90;;;;;;5066114;28;20223;-32
2022/12/04 00:24:51;;;;;;;47.37;28.13;;;3.20;99.90;;;;;;5066528;28;20238;-31
2022/12/04 00:27:19;;;;;;;49.93;27.33;;;3.10;99.90;;;;;;5066466;28;20231;-31
2022/12/04 00:29:46;;;;;;;48.07;27.27;;;3.10;99.90;;;;;;5066136;28;20243;-31
2022/12/04 00:32:13;;;;;;;47.30;27.10;;;3.10;99.90;;;;;;5066638;28;20200;-31
2022/12/04 00:34:42;;;;;;;49.20;27.40;;;3.10;99.90;;;;;;5064562;28;20222;-32
2022/12/04 00:37:11;;;;;;;45.63;27.17;;;3.00;99.90;;;;;;5066473;28;20290;-32
2022/12/04 00:39:39;;;;;;;47.77;26.27;;;3.00;99.90;;;;;;5066200;28;20207;-31
2022/12/04 00:42:06;;;;;;;48.23;27.10;;;3.00;99.90;;;;;;5066907;28;20215;-32
2022/12/04 00:44:33;;;;;;;50.67;28.23;;;3.00;99.90;;;;;;5066544;28;20570;-32
2022/12/04 00:47:00;;;;;;;46.90;26.70;;;3.00;99.90;;;;;;5065059;28;20302;-32
2022/12/04 00:49:30;;;;;;;48.00;26.53;;;3.00;99.90;;;;;;5065913;28;20326;-31
2022/12/04 00:51:59;;;;;;;46.10;26.07;;;3.00;99.90;;;;;;5065603;28;20195;-32
2022/12/04 00:54:26;;;;;;;44.43;25.73;;;3.00;99.90;;;;;;5065691;28;20251;-31
2022/12/04 00:56:58;;;;;;;48.77;26.73;;;3.00;99.90;;;;;;5065548;28;20250;-32
2022/12/04 00:59:30;;;;;;;45.60;26.17;;;3.00;99.90;;;;;;5065625;28;20621;-31
2022/12/04 01:01:57;;;;;;;47.10;25.93;;;3.00;99.90;;;;;;5063927;28;20229;-32
2022/12/04 01:04:24;;;;;;;45.70;26.07;;;3.00;99.90;;;;;;5065639;28;20206;-31
2022/12/04 01:06:58;;;;;;;48.17;26.53;;;3.00;99.90;;;;;;5065474;28;20199;-31
2022/12/04 01:09:37;;;;;;;42.90;25.20;;;3.10;99.90;;;;;;5065744;28;20725;-33
2022/12/04 01:12:05;;;;;;;45.17;25.33;;;3.10;99.90;;;;;;5065463;28;20636;-33
2022/12/04 01:14:32;;;;;;;45.13;25.70;;;3.10;99.90;;;;;;5065356;28;20223;-31
2022/12/04 01:16:59;;;;;;;47.77;26.03;;;3.10;99.90;;;;;;5065764;28;20535;-31
2022/12/04 01:19:26;;;;;;;45.27;25.23;;;3.10;99.90;;;;;;5063966;28;20195;-31
2022/12/04 01:21:56;;;;;;;43.73;26.60;;;3.00;99.90;;;;;;5063834;28;20254;-31
2022/12/04 01:24:25;;;;;;;46.43;26.73;;;3.00;99.90;;;;;;5065402;28;20555;-31
2022/12/04 01:26:55;;;;;;;46.07;26.37;;;3.00;99.90;;;;;;5065409;28;20326;-31
2022/12/04 01:29:26;;;;;;;47.47;25.93;;;3.10;99.90;;;;;;5065734;28;20666;-31
2022/12/04 01:31:53;;;;;;;43.07;24.93;;;3.10;99.90;;;;;;5065493;28;20225;-31
2022/12/04 01:34:24;;;;;;;48.30;25.73;;;3.10;99.90;;;;;;5069464;28;20682;-31
2022/12/04 01:36:53;;;;;;;44.03;26.27;;;3.10;99.90;;;;;;5067518;28;20238;-31
2022/12/04 01:39:23;;;;;;;45.17;26.20;;;3.10;99.90;;;;;;5068928;28;20662;-31
2022/12/04 01:41:50;;;;;;;44.90;26.40;;;3.20;99.90;;;;;;5068908;28;20261;-31
2022/12/04 01:44:22;;;;;;;52.53;27.07;;;3.20;99.90;;;;;;5068921;28;20205;-31
2022/12/04 01:46:55;;;;;;;46.63;26.20;;;3.20;99.90;;;;;;5069392;28;20203;-31
2022/12/04 01:49:32;;;;;;;41.07;25.10;;;3.20;99.90;;;;;;5069288;28;20236;-31
2022/12/04 01:52:08;;;;;;;48.40;26.53;;;3.30;99.90;;;;;;5069199;28;20712;-31
2022/12/04 01:54:39;;;;;;;46.53;26.87;;;3.30;99.90;;;;;;5069096;28;20317;-31
2022/12/04 01:57:25;;;;;;;46.50;26.50;;;3.20;99.90;;;;;;5068963;28;20216;-31
2022/12/04 02:00:02;;;;;;;50.87;27.20;;;3.20;99.90;;;;;;5051408;28;20307;-31
2022/12/04 02:02:33;;;;;;;46.57;26.23;;;3.30;99.90;;;;;;5051175;28;20754;-31
2022/12/04 02:05:05;;;;;;;47.10;26.50;;;3.30;99.90;;;;;;5061524;28;20221;-31
2022/12/04 02:07:36;;;;;;;45.97;26.83;;;3.30;99.90;;;;;;5055817;28;20291;-31
2022/12/04 02:10:08;;;;;;;50.90;26.23;;;3.30;99.90;;;;;;5055500;28;20264;-31
2022/12/04 02:12:45;;;;;;;44.50;27.17;;;3.20;99.90;;;;;;5068163;28;20219;-31
2022/12/04 02:15:37;;;;;;;52.80;28.20;;;3.30;99.90;;;;;;5062405;28;20228;-31
2022/12/04 02:18:19;;;;;;;45.77;26.77;;;3.30;99.90;;;;;;5064897;28;20204;-31
2022/12/04 02:20:57;;;;;;;52.07;27.37;;;3.40;99.90;;;;;;5068534;28;20215;-31
2022/12/04 02:23:39;;;;;;;50.57;27.00;;;3.40;99.90;;;;;;5068350;28;20249;-31
2022/12/04 02:26:25;;;;;;;51.10;28.70;;;3.40;99.90;;;;;;5068616;28;20204;-31
2022/12/04 02:29:04;;;;;;;50.17;27.33;;;3.40;99.90;;;;;;5068655;28;20237;-31
2022/12/04 02:31:39;;;;;;;50.13;27.40;;;3.40;99.90;;;;;;5068505;28;20195;-31
2022/12/04 02:34:21;;;;;;;47.33;26.93;;;3.40;99.90;;;;;;5068567;28;20231;-33
2022/12/04 02:36:56;;;;;;;49.30;27.90;;;3.40;99.90;;;;;;5067193;28;20195;-32
2022/12/04 02:39:40;;;;;;;48.53;26.80;;;3.40;99.90;;;;;;5068369;28;20236;-31
2022/12/04 02:42:19;;;;;;;50.63;27.60;;;3.50;99.90;;;;;;5068801;28;20254;-31
2022/12/04 02:44:52;;;;;;;46.10;26.93;;;3.40;99.90;;;;;;5068330;28;20308;-31
2022/12/04 02:47:25;;;;;;;51.57;28.33;;;3.50;99.90;;;;;;5083737;28;20256;-31
2022/12/04 02:50:00;;;;;;;49.43;27.77;;;3.50;99.90;;;;;;5088459;28;20262;-31
2022/12/04 02:52:56;;;;;;;55.67;29.30;;;3.50;99.90;;;;;;5088296;28;20234;-31
2022/12/04 02:55:36;;;;;;;51.47;27.67;;;3.40;99.90;;;;;;5083063;28;20353;-31
2022/12/04 02:58:15;;;;;;;48.53;27.40;;;3.40;99.90;;;;;;5088443;28;20207;-30
2022/12/04 03:00:47;;;;;;;46.43;26.43;;;3.40;99.90;;;;;;5088313;28;20209;-31
2022/12/04 03:03:24;;;;;;;47.13;27.00;;;3.40;99.90;;;;;;5088432;28;20202;-31
2022/12/04 03:06:09;;;;;;;48.60;28.17;;;3.50;99.90;;;;;;5088643;28;20283;-31
2022/12/04 03:08:58;;;;;;;52.23;27.37;;;3.50;99.90;;;;;;5088243;28;20203;-31
2022/12/04 03:11:36;;;;;;;47.17;26.77;;;3.50;99.90;;;;;;5088286;28;20211;-30
2022/12/04 03:14:17;;;;;;;51.20;29.07;;;3.40;99.90;;;;;;5086737;28;20276;-30
2022/12/04 03:16:55;;;;;;;49.77;27.67;;;3.40;99.90;;;;;;5088308;28;20199;-31
2022/12/04 03:19:26;;;;;;;50.20;27.43;;;3.40;99.90;;;;;;5088244;28;20206;-31
2022/12/04 03:21:58;;;;;;;48.43;26.70;;;3.50;99.90;;;;;;5088066;28;20587;-30
2022/12/04 03:24:41;;;;;;;53.93;28.57;;;3.50;99.90;;;;;;5087872;28;20574;-30
2022/12/04 03:27:19;;;;;;;50.20;28.47;;;3.50;99.90;;;;;;5088064;28;20668;-31
2022/12/04 03:30:08;;;;;;;52.33;28.30;;;3.50;99.90;;;;;;5087491;28;20206;-31
2022/12/04 03:32:52;;;;;;;51.63;28.83;;;3.50;99.90;;;;;;5087719;28;20317;-31
2022/12/04 03:35:29;;;;;;;50.80;28.83;;;3.50;99.90;;;;;;5087430;28;20218;-30
2022/12/04 03:38:19;;;;;;;52.00;28.83;;;3.50;99.90;;;;;;5087704;28;20210;-30
2022/12/04 03:41:03;;;;;;;50.63;28.07;;;3.50;99.90;;;;;;5087766;28;20228;-31
2022/12/04 03:43:54;;;;;;;50.33;28.80;;;3.60;99.90;;;;;;5087670;28;20207;-31
2022/12/04 03:46:39;;;;;;;50.33;27.73;;;3.50;99.90;;;;;;5087745;28;20233;-31
2022/12/04 03:49:12;;;;;;;51.80;29.27;;;3.50;99.90;;;;;;5086026;28;20617;-30
2022/12/04 03:51:56;;;;;;;47.80;28.37;;;3.50;99.90;;;;;;5085926;28;20210;-31
2022/12/04 03:54:39;;;;;;;53.50;29.87;;;3.60;99.90;;;;;;5087255;28;20732;-31
2022/12/04 03:57:13;;;;;;;54.03;28.53;;;3.60;99.90;;;;;;5087414;28;20575;-30
2022/12/04 04:00:16;;;;;;;52.20;29.20;;;3.60;99.90;;;;;;5087341;28;20195;-31
2022/12/04 04:02:51;;;;;;;52.33;29.17;;;3.60;99.90;;;;;;5074990;28;20207;-31
2022/12/04 04:05:19;;;;;;;53.57;29.27;;;3.60;99.90;;;;;;5087032;28;20294;-31
2022/12/04 04:07:53;;;;;;;50.47;28.83;;;3.70;99.90;;;;;;5087373;28;20207;-31
2022/12/04 04:10:25;;;;;;;52.43;28.63;;;3.70;99.90;;;;;;5087118;28;20226;-31
2022/12/04 04:24:41;;;;;;;55.00;30.47;;;3.80;99.90;;;;;;5055307;28;20439;-31
2022/12/04 04:27:11;;;;;;;52.40;29.50;;;3.70;99.90;;;;;;5086541;28;20246;-31
2022/12/04 04:29:38;;;;;;;54.47;29.83;;;3.70;99.90;;;;;;5086609;28;20217;-31
2022/12/04 04:32:12;;;;;;;53.40;29.60;;;3.80;99.90;;;;;;5086699;28;20238;-30
2022/12/04 04:34:56;;;;;;;53.00;28.07;;;3.80;99.90;;;;;;5086921;28;20250;-31
2022/12/04 04:37:39;;;;;;;48.00;28.87;;;3.80;99.90;;;;;;5086633;28;20733;-31
2022/12/04 04:40:38;;;;;;;53.63;30.43;;;3.80;99.90;;;;;;5086300;28;20240;-31
2022/12/04 04:43:17;;;;;;;49.23;28.50;;;3.80;99.90;;;;;;5079579;28;20306;-31
2022/12/04 04:45:48;;;;;;;53.73;30.30;;;3.90;99.90;;;;;;5086681;28;20301;-31
2022/12/04 04:48:28;;;;;;;49.10;29.30;;;3.90;99.90;;;;;;5087133;28;20687;-31
2022/12/04 04:51:02;;;;;;;48.00;28.33;;;3.90;99.90;;;;;;5086285;28;20238;-31
2022/12/04 04:53:44;;;;;;;53.27;29.87;;;3.90;99.90;;;;;;5086562;28;20262;-31
2022/12/04 04:56:12;;;;;;;53.40;29.33;;;3.90;99.90;;;;;;5086680;28;20301;-31
2022/12/04 04:58:40;;;;;;;54.07;30.77;;;3.90;99.90;;;;;;5086376;28;20194;-31
2022/12/04 05:01:19;;;;;;;52.73;29.70;;;3.90;99.90;;;;;;5086436;28;20198;-31
2022/12/04 05:03:46;;;;;;;51.83;29.63;;;3.90;99.90;;;;;;5086525;28;20217;-31
2022/12/04 05:06:14;;;;;;;53.00;29.33;;;3.90;99.90;;;;;;5087479;28;20313;-31
2022/12/04 05:08:41;;;;;;;53.30;29.20;;;3.90;99.90;;;;;;5090950;28;20718;-30
2022/12/04 05:11:13;;;;;;;55.47;29.43;;;3.90;99.90;;;;;;5090652;28;20690;-31
2022/12/04 05:13:41;;;;;;;53.03;29.90;;;3.90;99.90;;;;;;5090421;28;20722;-30
2022/12/04 05:16:13;;;;;;;56.97;30.33;;;3.90;99.90;;;;;;5090750;28;20641;-31
2022/12/04 05:19:52;;;;;;;53.07;28.83;;;3.90;99.90;;;;;;5090440;28;20198;-30
2022/12/04 05:21:30;;;;;;;56.20;30.23;;;3.90;99.90;;;;;;5090439;28;20205;-30
2022/12/04 05:23:57;;;;;;;51.37;28.67;;;3.90;99.90;;;;;;5090252;28;20441;-31
2022/12/04 05:26:27;;;;;;;50.77;28.90;;;3.90;99.90;;;;;;5090321;28;20636;-31
2022/12/04 05:28:54;;;;;;;52.40;29.47;;;3.90;99.90;;;;;;5090435;28;20666;-31
2022/12/04 05:31:21;;;;;;;54.17;30.23;;;3.90;99.90;;;;;;5090121;28;20257;-32
2022/12/04 05:33:51;;;;;;;54.93;29.27;;;4.00;99.90;;;;;;5090117;28;20693;-31
2022/12/04 05:36:22;;;;;;;51.47;29.87;;;3.90;99.90;;;;;;5089418;28;20325;-31
2022/12/04 05:38:49;;;;;;;53.83;30.17;;;3.90;99.90;;;;;;5089665;28;20760;-31
2022/12/04 05:41:17;;;;;;;54.17;29.87;;;3.90;99.90;;;;;;5089804;28;20352;-31
2022/12/04 05:43:44;;;;;;;54.43;30.13;;;3.90;99.90;;;;;;5089948;28;20233;-31
2022/12/04 05:46:13;;;;;;;53.97;30.30;;;3.90;99.90;;;;;;5089811;28;20206;-31
2022/12/04 05:48:43;;;;;;;56.73;31.33;;;3.90;99.90;;;;;;5089505;28;20587;-31
2022/12/04 05:51:13;;;;;;;50.40;29.13;;;3.90;99.90;;;;;;5089961;28;20235;-31
2022/12/04 05:53:40;;;;;;;54.77;30.63;;;3.90;99.90;;;;;;5089900;28;20674;-31
2022/12/04 05:56:07;;;;;;;48.93;30.00;;;3.90;99.90;;;;;;5089438;28;20824;-31
2022/12/04 05:58:39;;;;;;;56.87;30.90;;;3.90;99.90;;;;;;5089627;28;20197;-31
2022/12/04 06:01:14;;;;;;;55.70;30.30;;;3.80;99.90;;;;;;5089595;28;20248;-31
2022/12/04 06:03:41;;;;;;;57.20;29.07;;;3.90;99.90;;;;;;5089214;28;20194;-31
2022/12/04 06:06:13;;;;;;;58.97;32.27;;;3.80;99.90;;;;;;5087674;28;20210;-31
2022/12/04 06:08:53;;;;;;;55.67;31.53;;;3.80;99.90;;;;;;5089286;28;20285;-31
2022/12/04 06:11:23;;;;;;;57.23;31.20;;;3.90;99.90;;;;;;5089609;28;20734;-31
2022/12/04 06:13:51;;;;;;;54.23;30.63;;;3.90;99.90;;;;;;5089169;28;20222;-31
2022/12/04 06:16:23;;;;;;;57.13;30.77;;;3.90;99.90;;;;;;5089061;28;20225;-31
2022/12/04 06:18:57;;;;;;;58.07;32.50;;;3.80;99.90;;;;;;5088945;28;20544;-31
2022/12/04 06:21:26;;;;;;;53.67;30.23;;;3.80;99.90;;;;;;5089492;28;20296;-31
2022/12/04 06:23:56;;;;;;;52.87;30.70;;;3.80;99.90;;;;;;5089466;28;20272;-31
2022/12/04 06:26:24;;;;;;;56.67;32.70;;;3.80;99.90;;;;;;5089374;28;20203;-30
2022/12/04 06:28:53;;;;;;;63.40;33.40;;;3.80;99.90;;;;;;5087626;28;20226;-31
2022/12/04 06:31:24;;;;;;;57.13;31.77;;;3.80;99.90;;;;;;5087478;28;20218;-31
2022/12/04 06:33:56;;;;;;;58.83;32.23;;;3.80;99.90;;;;;;5088660;28;20686;-31
2022/12/04 06:36:25;;;;;;;55.90;32.67;;;3.80;99.90;;;;;;5088464;28;20603;-31
2022/12/04 06:38:55;;;;;;;61.33;34.30;;;3.80;99.90;;;;;;5088890;28;20732;-31
2022/12/04 06:41:24;;;;;;;61.30;33.20;;;3.80;99.90;;;;;;5088437;28;20209;-31
2022/12/04 06:43:51;;;;;;;54.60;32.87;;;3.80;99.90;;;;;;5088044;28;20209;-31
2022/12/04 06:46:26;;;;;;;60.17;34.77;;;3.70;99.90;;;;;;5086739;28;20197;-31
2022/12/04 06:48:55;;;;;;;58.87;33.90;;;3.80;99.90;;;;;;5086518;28;20217;-31
2022/12/04 06:51:27;;;;;;;59.13;32.93;;;3.80;99.90;;;;;;5087974;28;20222;-31
2022/12/04 06:53:57;;;;;;;58.70;33.93;;;3.80;99.90;;;;;;5087722;28;20214;-31
2022/12/04 06:56:29;;;;;;;54.00;31.33;;;3.80;99.90;;;;;;5088133;28;20307;-31
2022/12/04 06:58:59;;;;;;;59.50;33.80;;;3.80;99.90;;;;;;5086411;28;20210;-31
2022/12/04 07:01:28;;;;;;;59.97;34.23;;;3.80;99.90;;;;;;5087827;28;20195;-30
2022/12/04 07:03:56;;;;;;;59.53;32.67;;;3.80;99.90;;;;;;5088262;28;20203;-30
2022/12/04 07:06:27;;;;;;;59.77;34.33;;;3.80;99.90;;;;;;5087447;28;20206;-31
2022/12/04 07:09:01;;;;;;;55.17;31.63;;;3.80;99.90;;;;;;5088037;28;20528;-31
2022/12/04 07:11:31;;;;;;;56.63;33.90;;;3.80;99.90;;;;;;5088075;28;20301;-31
2022/12/04 07:14:01;;;;;;;61.80;34.93;;;3.80;99.90;;;;;;5087805;28;20203;-31
2022/12/04 07:16:29;;;;;;;60.80;33.67;;;3.80;99.90;;;;;;5087352;28;20317;-31
2022/12/04 07:19:05;;;;;;;57.90;34.03;;;3.80;99.90;;;;;;5087474;28;20199;-31
2022/12/04 07:21:33;;;;;;;59.63;34.47;;;3.80;99.90;;;;;;5086827;28;20213;-30
2022/12/04 07:24:01;;;;;;;62.77;33.93;;;3.90;99.90;;;;;;5087775;28;20215;-31
2022/12/04 07:26:31;;;;;;;61.50;32.90;;;3.90;99.90;;;;;;5087806;28;20206;-31
2022/12/04 07:29:01;;;;;;;62.63;33.73;;;3.90;99.90;;;;;;5087650;28;20756;-31
2022/12/04 07:31:29;;;;;;;58.20;32.47;;;3.80;99.90;;;;;;5087223;28;20571;-31
2022/12/04 07:33:58;;;;;;;54.80;32.87;;;3.90;99.90;;;;;;5087792;28;20253;-30
2022/12/04 07:36:26;;;;;;;60.90;34.30;;;3.90;99.90;;;;;;5085774;28;20961;-31
2022/12/04 07:38:56;;;;;;;56.23;33.27;;;3.80;99.90;;;;;;5087082;28;20302;-31
2022/12/04 07:41:26;;;;;;;56.93;31.77;;;3.90;99.90;;;;;;5087400;28;20293;-31
2022/12/04 07:43:55;;;;;;;54.60;32.80;;;3.80;99.90;;;;;;5087207;28;20970;-31
2022/12/04 07:46:27;;;;;;;58.80;33.17;;;3.80;99.90;;;;;;5087529;28;20256;-31
2022/12/04 07:48:55;;;;;;;57.90;32.37;;;3.80;99.90;;;;;;5068840;28;20215;-31
2022/12/04 07:51:25;;;;;;;56.90;31.37;;;3.90;99.90;;;;;;5087117;28;20203;-31
2022/12/04 07:53:53;;;;;;;57.67;32.23;;;3.90;99.90;;;;;;5087325;28;20209;-30
2022/12/04 07:56:27;;;;;;;56.67;31.17;;;3.90;99.90;;;;;;5087614;28;20309;-30
2022/12/04 07:58:54;;;;;;;53.70;32.27;;;3.90;99.90;;;;;;5086033;28;20284;-30
2022/12/04 08:01:25;;;;;;;56.70;31.17;;;3.90;99.90;;;;;;5087345;28;20187;-30
2022/12/04 08:03:55;;;;;;;53.77;30.87;;;3.90;99.90;;;;;;5087055;28;20630;-31
2022/12/04 08:06:24;;;;;;;57.23;29.90;;;3.90;99.90;;;;;;5087139;28;20772;-31
2022/12/04 08:08:56;;;;;;;56.03;32.13;;;3.90;99.90;;;;;;5086943;28;20206;-30
2022/12/04 08:11:27;;;;;;;58.93;30.87;;;3.90;99.90;;;;;;5085489;28;20191;-33
2022/12/04 08:14:07;;;;;;;50.97;29.97;;;3.90;99.90;;;;;;5086849;28;20206;-33
2022/12/04 08:16:34;;;;;;;57.10;31.20;;;3.90;99.90;;;;;;5086876;28;20223;-33
2022/12/04 08:19:06;;;;;;;50.73;30.60;;;3.90;99.90;;;;;;5086913;28;20214;-33
2022/12/04 08:21:36;;;;;;;56.63;32.17;;;3.90;99.90;;;;;;5086703;28;20205;-33
2022/12/04 08:24:03;;;;;;;51.80;30.33;;;3.90;99.90;;;;;;5084760;28;20753;-33
2022/12/04 08:26:34;;;;;;;54.93;31.67;;;3.90;99.90;;;;;;5086061;28;20205;-33
2022/12/04 08:29:02;;;;;;;55.27;32.07;;;3.90;99.90;;;;;;5086383;28;20218;-33
2022/12/04 08:31:34;;;;;;;55.57;30.27;;;3.90;99.90;;;;;;5086441;28;20209;-33
2022/12/04 08:34:06;;;;;;;54.50;30.70;;;3.90;99.90;;;;;;5086424;28;20222;-31
2022/12/04 08:36:33;;;;;;;58.13;31.10;;;3.90;99.90;;;;;;5086421;28;20722;-31
2022/12/04 08:39:03;;;;;;;53.60;31.70;;;3.90;99.90;;;;;;5086320;28;20665;-32
2022/12/04 08:41:31;;;;;;;57.00;31.57;;;3.90;99.90;;;;;;5085016;28;20587;-32
2022/12/04 08:43:58;;;;;;;57.90;30.80;;;3.90;99.90;;;;;;5086682;28;20197;-32
2022/12/04 08:46:28;;;;;;;55.60;29.70;;;3.90;99.90;;;;;;5086599;28;20210;-32
2022/12/04 08:48:57;;;;;;;55.00;30.43;;;4.00;99.90;;;;;;5086520;28;20222;-32
2022/12/04 08:51:30;;;;;;;60.07;31.77;;;3.90;99.90;;;;;;5084930;28;20304;-32
2022/12/04 08:54:06;;;;;;;52.90;32.23;;;3.90;99.90;;;;;;5066297;28;20219;-32
2022/12/04 08:56:37;;;;;;;50.63;31.07;;;3.90;99.90;;;;;;5066073;28;20660;-32
2022/12/04 08:59:04;;;;;;;54.80;31.57;;;3.90;99.90;;;;;;5066457;28;20196;-32
2022/12/04 09:01:34;;;;;;;55.13;30.10;;;4.00;99.90;;;;;;5066473;28;20633;-32
2022/12/04 09:04:06;;;;;;;54.07;31.00;;;4.00;99.90;;;;;;5066061;28;20233;-33
2022/12/04 09:06:33;;;;;;;48.50;29.97;;;4.00;99.90;;;;;;5066272;28;20219;-32
2022/12/04 09:09:02;;;;;;;49.67;29.50;;;4.00;99.90;;;;;;5066534;28;20208;-32
2022/12/04 09:11:31;;;;;;;52.47;30.43;;;4.00;99.90;;;;;;5066342;28;20223;-32
2022/12/04 09:14:00;;;;;;;49.03;29.67;;;4.00;99.90;;;;;;5065961;28;20207;-33
2022/12/04 09:16:28;;;;;;;49.93;28.83;;;4.00;99.90;;;;;;5066365;28;20254;-33
2022/12/04 09:18:57;;;;;;;49.33;28.40;;;4.10;99.90;;;;;;5066015;28;20196;-33
2022/12/04 09:21:30;;;;;;;46.13;27.03;;;4.10;99.90;;;;;;5064363;28;20207;-31
2022/12/04 09:24:01;;;;;;;44.77;27.33;;;4.10;99.90;;;;;;5066216;28;20199;-31
2022/12/04 09:26:31;;;;;;;41.87;26.23;;;4.10;99.90;;;;;;5048754;28;20565;-31
2022/12/04 09:29:00;;;;;;;44.03;26.90;;;4.10;99.90;;;;;;5046336;28;20208;-31
2022/12/04 09:31:28;;;;;;;43.47;26.50;;;4.20;99.90;;;;;;5044544;28;20220;-31
2022/12/04 09:34:00;;;;;;;41.67;24.87;;;4.20;99.90;;;;;;5045593;28;20905;-33
2022/12/04 09:36:29;;;;;;;43.80;25.43;;;4.20;99.90;;;;;;5045159;28;20216;-33
2022/12/04 09:38:57;;;;;;;41.67;24.77;;;4.20;99.90;;;;;;5043793;28;20307;-33
2022/12/04 09:41:45;;;;;;;39.17;24.37;;;4.30;99.90;;;;;;5044223;28;20192;-33
2022/12/04 09:44:26;;;;;;;42.00;24.07;;;4.30;99.90;;;;;;5046222;28;20238;-33
2022/12/04 09:47:12;;;;;;;43.97;23.93;;;4.30;99.90;;;;;;5046530;28;20278;-32
2022/12/04 09:49:50;;;;;;;45.27;26.43;;;4.40;99.90;;;;;;5044084;28;20695;-33
2022/12/04 09:52:48;;;;;;;43.97;25.27;;;4.30;99.90;;;;;;5045725;28;20570;-33
2022/12/04 09:55:30;;;;;;;45.00;26.40;;;4.30;99.90;;;;;;5049358;28;20222;-33
2022/12/04 09:58:04;;;;;;;45.87;27.50;;;4.30;99.90;;;;;;5047855;28;20303;-33
2022/12/04 10:00:43;;;;;;;45.07;27.97;;;4.30;99.90;;;;;;5049387;28;20231;-33
2022/12/04 10:03:17;;;;;;;45.47;25.47;;;4.40;99.90;;;;;;5049268;28;20200;-33
2022/12/04 10:06:02;;;;;;;44.90;25.10;;;4.30;99.90;;;;;;5047891;28;20282;-33
2022/12/04 10:08:34;;;;;;;40.53;25.10;;;4.40;99.90;;;;;;5049049;28;20204;-32
2022/12/04 10:11:09;;;;;;;35.57;22.87;;;4.40;99.90;;;;;;5049100;28;20822;-32
2022/12/04 10:14:03;;;;;;;39.97;23.90;;;4.40;99.90;;;;;;5048963;28;20196;-32
2022/12/04 10:16:57;;;;;;;36.17;24.53;;;4.40;99.90;;;;;;5048939;28;20267;-32
2022/12/04 10:19:30;;;;;;;42.73;24.60;;;4.50;99.90;;;;;;5049169;28;20195;-32
2022/12/04 10:22:00;;;;;;;40.27;23.00;;;4.40;99.90;;;;;;5048895;28;20197;-32
2022/12/04 10:24:33;;;;;;;39.00;23.40;;;4.50;99.90;;;;;;5048733;28;20196;-32
2022/12/04 10:27:09;;;;;;;36.13;21.67;;;4.50;99.90;;;;;;5048986;28;20583;-32
2022/12/04 10:29:40;;;;;;;36.70;20.83;;;4.50;99.90;;;;;;5048904;28;20755;-32
2022/12/04 10:32:27;;;;;;;31.10;20.27;;;4.60;99.90;;;;;;5048784;28;20294;-32
2022/12/04 10:35:03;;;;;;;30.87;19.57;;;4.60;99.90;;;;;;5048842;28;20212;-32
2022/12/04 10:37:40;;;;;;;34.20;22.17;;;4.60;99.90;;;;;;5048551;28;20231;-32
2022/12/04 10:40:46;;;;;;;32.27;19.63;;;4.60;99.90;;;;;;5030503;28;20192;-32
2022/12/04 10:43:31;;;;;;;28.47;18.90;;;4.60;99.90;;;;;;5048437;28;20243;-32
2022/12/04 10:45:58;;;;;;;31.53;20.37;;;4.60;99.90;;;;;;5048793;28;20204;-32
2022/12/04 10:48:33;;;;;;;32.00;19.60;;;4.50;99.90;;;;;;5048843;28;20726;-32
2022/12/04 10:51:03;;;;;;;31.53;18.87;;;4.50;99.90;;;;;;5048344;28;20231;-31
2022/12/04 10:53:34;;;;;;;29.83;18.93;;;4.50;99.90;;;;;;5048468;28;20295;-32
2022/12/04 10:56:13;;;;;;;35.57;20.00;;;4.50;99.90;;;;;;5048767;28;20220;-32
2022/12/04 10:58:53;;;;;;;29.13;18.00;;;4.50;99.90;;;;;;5048314;28;20607;-32
2022/12/04 11:01:22;;;;;;;31.33;19.47;;;4.60;99.90;;;;;;5048241;28;20208;-32
2022/12/04 11:04:18;;;;;;;27.73;18.40;;;4.60;99.90;;;;;;5047764;28;20207;-32
2022/12/04 11:06:48;;;;;;;28.67;18.83;;;4.60;99.90;;;;;;5047313;28;20213;-32
2022/12/04 11:09:25;;;;;;;31.03;19.07;;;4.60;99.90;;;;;;5047885;28;20710;-31
2022/12/04 11:12:03;;;;;;;30.03;18.57;;;4.60;99.90;;;;;;5048615;28;20204;-31
2022/12/04 11:14:30;;;;;;;26.83;17.07;;;4.50;99.90;;;;;;5048101;28;20231;-32
2022/12/04 11:17:04;;;;;;;27.83;17.13;;;4.60;99.90;;;;;;5047572;28;20228;-31
2022/12/04 11:19:35;;;;;;;29.83;18.20;;;4.60;99.90;;;;;;5048285;28;20282;-32
2022/12/04 11:22:13;;;;;;;28.63;18.90;;;4.60;99.90;;;;;;5047945;28;20200;-32
2022/12/04 11:24:49;;;;;;;26.50;18.37;;;4.60;99.90;;;;;;5047504;28;20207;-32
2022/12/04 11:27:28;;;;;;;28.67;17.00;;;4.60;99.90;;;;;;5047944;28;20194;-32
2022/12/04 11:30:00;;;;;;;28.60;17.07;;;4.60;99.90;;;;;;5047588;28;20742;-30
2022/12/04 11:32:32;;;;;;;30.00;18.40;;;4.60;99.90;;;;;;5047730;28;20657;-30
2022/12/04 11:35:12;;;;;;;28.03;17.67;;;4.70;99.90;;;;;;5047547;28;20228;-30
2022/12/04 11:37:50;;;;;;;27.43;16.93;;;4.70;99.90;;;;;;5047750;28;20650;-31
2022/12/04 11:40:21;;;;;;;26.53;17.20;;;4.70;99.90;;;;;;5047651;28;20299;-31
2022/12/04 11:43:14;;;;;;;28.80;18.13;;;4.80;99.90;;;;;;5047691;28;20199;-31
2022/12/04 11:45:51;;;;;;;33.37;18.07;;;4.80;99.90;;;;;;5047674;28;20781;-31
2022/12/04 11:48:21;;;;;;;28.60;17.60;;;4.80;99.90;;;;;;5047438;28;20679;-30
2022/12/04 11:51:15;;;;;;;31.00;17.40;;;4.80;99.90;;;;;;5047227;28;20232;-30
2022/12/04 11:54:01;;;;;;;28.23;16.33;;;4.70;99.90;;;;;;5047136;28;20203;-30
2022/12/04 11:56:35;;;;;;;28.00;17.43;;;4.70;99.90;;;;;;5045712;28;20327;-30
2022/12/04 11:59:35;;;;;;;28.63;17.83;;;4.70;99.90;;;;;;5047153;28;20314;-30
2022/12/04 12:02:32;;;;;;;28.47;17.80;;;4.70;99.90;;;;;;5045577;28;20956;-30
2022/12/04 12:05:25;;;;;;;30.37;18.40;;;4.60;99.90;;;;;;5047273;28;20778;-30
2022/12/04 12:07:52;;;;;;;26.10;16.80;;;4.70;99.90;;;;;;5046650;28;20351;-30
2022/12/04 12:10:54;;;;;;;27.57;17.03;;;4.70;99.90;;;;;;5046214;28;20229;-30
2022/12/04 12:13:54;;;;;;;25.37;16.80;;;4.80;99.90;;;;;;5037925;28;20220;-31
2022/12/04 12:16:59;;;;;;;24.90;16.43;;;4.80;99.90;;;;;;5045674;28;20657;-31
2022/12/04 12:19:56;;;;;;;27.20;17.17;;;4.80;99.90;;;;;;5046339;28;20310;-31
2022/12/04 12:22:41;;;;;;;26.90;16.97;;;4.80;99.90;;;;;;5046076;28;20297;-31
2022/12/04 12:25:19;;;;;;;27.37;17.00;;;4.80;99.90;;;;;;5046032;28;20208;-31
2022/12/04 12:27:46;;;;;;;25.33;16.17;;;4.80;99.90;;;;;;5046636;28;20227;-31
2022/12/04 12:30:20;;;;;;;23.23;15.30;;;4.80;99.90;;;;;;5044618;28;20216;-31
2022/12/04 12:33:16;;;;;;;23.43;16.33;;;4.90;99.90;;;;;;5046338;28;20667;-31
2022/12/04 12:36:10;;;;;;;25.83;15.30;;;4.80;99.90;;;;;;5045945;28;20207;-31
2022/12/04 12:38:51;;;;;;;21.83;14.97;;;4.80;99.90;;;;;;5046164;28;20262;-31
2022/12/04 12:41:26;;;;;;;22.63;14.50;;;4.80;99.90;;;;;;5044865;28;20236;-31
2022/12/04 12:44:03;;;;;;;21.40;13.23;;;4.80;99.90;;;;;;5044775;28;20765;-31
2022/12/04 12:46:30;;;;;;;21.07;14.00;;;4.80;99.90;;;;;;5046086;28;20303;-31
2022/12/04 12:49:24;;;;;;;22.97;14.10;;;4.80;99.90;;;;;;5045901;28;20198;-31
2022/12/04 12:52:04;;;;;;;19.60;13.93;;;4.80;99.90;;;;;;5044466;28;20311;-31
2022/12/04 12:54:45;;;;;;;20.10;13.90;;;4.80;99.90;;;;;;5045839;28;20184;-31
2022/12/04 12:57:33;;;;;;;23.97;14.40;;;4.80;99.90;;;;;;5046022;28;20586;-31
2022/12/04 13:00:13;;;;;;;22.33;13.93;;;4.90;99.90;;;;;;5046290;28;20729;-31
2022/12/04 13:03:00;;;;;;;19.20;12.87;;;4.90;99.90;;;;;;5046015;28;20275;-31
2022/12/04 13:05:42;;;;;;;19.47;12.53;;;4.90;99.90;;;;;;5046063;28;20243;-31
2022/12/04 13:08:26;;;;;;;22.07;13.93;;;4.90;99.90;;;;;;5045971;28;20204;-31
2022/12/04 13:11:15;;;;;;;20.93;13.43;;;4.90;99.90;;;;;;5046230;28;20298;-32
2022/12/04 13:13:50;;;;;;;19.70;14.47;;;4.90;99.90;;;;;;5045846;28;20654;-31
2022/12/04 13:16:25;;;;;;;21.67;14.47;;;4.80;99.90;;;;;;5045751;28;20212;-31
2022/12/04 13:19:11;;;;;;;22.43;14.17;;;4.80;99.90;;;;;;5045815;28;20204;-31
2022/12/04 13:22:04;;;;;;;22.47;14.03;;;4.70;99.90;;;;;;5044699;28;20660;-31
2022/12/04 13:25:03;;;;;;;20.40;14.03;;;4.70;99.90;;;;;;5042798;28;20244;-31
2022/12/04 13:28:35;;;;;;;21.57;14.67;;;4.70;99.90;;;;;;5046879;28;20713;-32